createdAt,value
2022-12-29T00:02:47.651Z,8.94
2022-12-29T00:07:50.531Z,8.87
2022-12-29T00:13:10.834Z,8.62
2022-12-29T00:18:14.930Z,8.64
2022-12-29T00:23:35.334Z,9.00
2022-12-29T00:29:04.191Z,8.98
2022-12-29T00:34:29.939Z,9.27
2022-12-29T00:39:50.225Z,9.04
2022-12-29T00:44:53.009Z,9.08
2022-12-29T00:49:57.136Z,8.96
2022-12-29T00:54:59.913Z,9.35
2022-12-29T01:00:03.155Z,9.00
2022-12-29T01:05:08.217Z,9.40
2022-12-29T01:10:15.691Z,9.47
2022-12-29T01:15:18.579Z,9.08
2022-12-29T01:20:22.746Z,9.18
2022-12-29T01:25:25.561Z,9.06
2022-12-29T01:30:28.342Z,9.23
2022-12-29T01:35:32.757Z,9.39
2022-12-29T01:40:35.561Z,9.37
2022-12-29T01:45:38.272Z,8.94
2022-12-29T01:50:47.430Z,8.91
2022-12-29T01:55:54.791Z,9.19
2022-12-29T02:00:58.570Z,9.43
2022-12-29T02:06:09.449Z,9.40
2022-12-29T02:11:14.978Z,9.44
2022-12-29T02:16:31.933Z,8.60
2022-12-29T02:22:07.565Z,8.44
2022-12-29T02:27:31.122Z,8.33
2022-12-29T02:32:41.543Z,8.42
2022-12-29T02:37:51.193Z,8.17
2022-12-29T02:43:02.012Z,8.77
2022-12-29T02:48:15.294Z,8.72
2022-12-29T02:53:42.011Z,9.13
2022-12-29T02:58:44.912Z,8.84
2022-12-29T03:04:05.878Z,9.37
2022-12-29T03:09:20.346Z,9.23
2022-12-29T03:14:48.977Z,9.33
2022-12-29T03:19:57.872Z,9.39
2022-12-29T03:25:04.981Z,9.64
2022-12-29T03:30:09.990Z,9.56
2022-12-29T03:35:18.432Z,9.47
2022-12-29T03:40:24.506Z,9.47
2022-12-29T03:45:28.096Z,9.61
2022-12-29T03:50:32.613Z,9.86
2022-12-29T03:55:35.655Z,9.54
2022-12-29T04:00:38.857Z,9.64
2022-12-29T04:05:43.054Z,9.82
2022-12-29T04:10:46.003Z,9.50
2022-12-29T04:15:50.792Z,9.67
2022-12-29T04:21:01.868Z,9.97
2022-12-29T04:26:07.959Z,10.09
2022-12-29T04:31:15.246Z,9.49
2022-12-29T04:36:25.329Z,9.71
2022-12-29T04:41:32.971Z,9.69
2022-12-29T04:46:36.626Z,9.48
2022-12-29T04:51:47.756Z,8.86
2022-12-29T04:56:52.062Z,9.08
2022-12-29T05:01:55.406Z,8.66
2022-12-29T05:07:00.003Z,8.76
2022-12-29T05:12:04.100Z,8.81
2022-12-29T05:17:09.266Z,8.51
2022-12-29T05:22:13.541Z,8.77
2022-12-29T05:27:18.394Z,8.73
2022-12-29T05:32:28.207Z,8.81
2022-12-29T05:37:32.474Z,9.03
2022-12-29T05:42:35.739Z,8.98
2022-12-29T05:47:57.159Z,9.19
2022-12-29T05:53:17.266Z,9.35
2022-12-29T05:58:22.317Z,9.38
2022-12-29T06:03:25.587Z,9.63
2022-12-29T06:08:30.102Z,9.53
2022-12-29T06:13:33.125Z,9.99
2022-12-29T06:18:36.266Z,9.76
2022-12-29T06:23:40.546Z,10.04
2022-12-29T06:28:43.326Z,9.70
2022-12-29T06:33:49.838Z,7.41
2022-12-29T06:38:54.645Z,6.78
2022-12-29T06:43:59.396Z,6.76
2022-12-29T06:49:20.593Z,6.98
2022-12-29T06:54:28.288Z,6.89
2022-12-29T06:59:31.553Z,7.16
2022-12-29T07:04:34.742Z,7.18
2022-12-29T07:09:38.981Z,7.46
2022-12-29T07:14:43.504Z,7.53
2022-12-29T07:19:46.605Z,7.41
2022-12-29T07:24:50.722Z,7.42
2022-12-29T07:29:53.539Z,7.39
2022-12-29T07:34:56.349Z,7.23
2022-12-29T07:40:00.523Z,7.88
2022-12-29T07:45:03.463Z,7.70
2022-12-29T07:50:24.105Z,7.67
2022-12-29T07:55:28.437Z,7.79
2022-12-29T08:00:31.277Z,7.90
2022-12-29T08:05:36.413Z,8.03
2022-12-29T08:10:40.668Z,8.13
2022-12-29T08:15:43.513Z,8.15
2022-12-29T08:20:49.858Z,8.21
2022-12-29T08:26:00.881Z,8.39
2022-12-29T08:31:04.445Z,8.43
2022-12-29T08:36:09.249Z,8.67
2022-12-29T08:41:13.388Z,8.56
2022-12-29T08:46:16.274Z,8.45
2022-12-29T08:51:22.929Z,8.85
2022-12-29T08:56:29.724Z,8.82
2022-12-29T09:01:37.244Z,8.54
2022-12-29T09:06:40.960Z,8.55
2022-12-29T09:11:45.320Z,8.88
2022-12-29T09:17:05.514Z,8.61
2022-12-29T09:22:08.391Z,8.44
2022-12-29T09:27:12.575Z,8.79
2022-12-29T09:32:18.809Z,9.71
2022-12-29T09:37:22.559Z,9.61
2022-12-29T09:42:31.543Z,9.24
2022-12-29T09:47:34.430Z,9.98
2022-12-29T09:52:40.178Z,9.38
2022-12-29T09:57:48.681Z,9.02
2022-12-29T10:02:56.752Z,8.87
2022-12-29T10:08:17.239Z,9.31
2022-12-29T10:13:35.635Z,9.09
2022-12-29T10:18:59.587Z,8.93
2022-12-29T10:24:06.748Z,9.05
2022-12-29T10:29:18.101Z,9.76
2022-12-29T10:34:25.187Z,10.17
2022-12-29T10:39:33.793Z,10.30
2022-12-29T10:44:39.877Z,10.65
2022-12-29T10:49:47.153Z,10.09
2022-12-29T10:54:54.274Z,10.45
2022-12-29T10:59:59.626Z,9.87
2022-12-29T11:05:05.773Z,9.79
2022-12-29T11:10:20.111Z,9.57
2022-12-29T11:15:24.306Z,9.75
2022-12-29T11:20:33.848Z,9.87
2022-12-29T11:25:36.623Z,9.42
2022-12-29T11:30:40.931Z,9.29
2022-12-29T11:35:45.586Z,9.24
2022-12-29T11:40:49.026Z,9.46
2022-12-29T11:45:55.064Z,9.50
2022-12-29T11:51:01.307Z,9.50
2022-12-29T11:56:08.206Z,9.64
2022-12-29T12:01:21.657Z,9.57
2022-12-29T12:06:25.679Z,9.56
2022-12-29T12:11:37.297Z,9.41
2022-12-29T12:16:45.578Z,9.28
2022-12-29T12:21:54.568Z,9.47
2022-12-29T12:27:01.881Z,9.44
2022-12-29T12:32:13.671Z,9.33
2022-12-29T12:37:55.380Z,9.38
2022-12-29T12:43:15.169Z,9.62
2022-12-29T12:48:41.085Z,9.18
2022-12-29T12:53:55.862Z,9.44
2022-12-29T12:59:09.544Z,9.19
2022-12-29T13:04:35.188Z,9.35
2022-12-29T13:09:52.970Z,9.18
2022-12-29T13:15:10.720Z,9.31
2022-12-29T13:20:26.663Z,9.17
2022-12-29T13:25:42.192Z,9.40
2022-12-29T13:30:50.320Z,9.43
2022-12-29T13:36:02.705Z,8.92
2022-12-29T13:41:10.436Z,8.95
2022-12-29T13:46:19.242Z,9.41
2022-12-29T13:51:28.332Z,8.92
2022-12-29T13:56:38.316Z,8.91
2022-12-29T14:01:46.132Z,8.71
2022-12-29T14:07:01.939Z,8.87
2022-12-29T14:12:23.592Z,9.13
2022-12-29T14:17:26.410Z,8.93
2022-12-29T14:22:33.483Z,8.94
2022-12-29T14:27:54.345Z,8.98
2022-12-29T14:33:15.620Z,8.74
2022-12-29T14:38:22.936Z,8.77
2022-12-29T14:43:29.050Z,8.76
2022-12-29T14:48:38.771Z,8.36
2022-12-29T14:53:48.803Z,8.56
2022-12-29T14:58:55.672Z,8.85
2022-12-29T15:04:02.673Z,8.54
2022-12-29T15:09:12.818Z,8.65
2022-12-29T15:14:50.930Z,9.17
2022-12-29T15:19:53.987Z,9.01
2022-12-29T15:24:59.910Z,8.89
2022-12-29T15:30:13.844Z,9.01
2022-12-29T15:35:29.950Z,8.97
2022-12-29T15:40:34.869Z,8.87
2022-12-29T15:45:37.989Z,9.06
2022-12-29T15:50:44.049Z,8.93
2022-12-29T15:55:48.785Z,9.04
2022-12-29T16:00:54.043Z,9.12
2022-12-29T16:05:58.846Z,9.07
2022-12-29T16:11:04.925Z,8.98
2022-12-29T16:16:16.306Z,8.74
2022-12-29T16:21:23.345Z,8.91
2022-12-29T16:26:27.621Z,8.94
2022-12-29T16:31:36.793Z,8.65
2022-12-29T16:36:53.733Z,8.89
2022-12-29T16:41:58.048Z,8.91
2022-12-29T16:47:20.977Z,9.06
2022-12-29T16:52:26.060Z,9.32
2022-12-29T16:57:34.714Z,9.05
2022-12-29T17:02:45.415Z,8.77
2022-12-29T17:07:49.171Z,8.64
2022-12-29T17:12:53.290Z,8.67
2022-12-29T17:17:57.576Z,8.56
2022-12-29T17:23:01.173Z,7.82
2022-12-29T17:28:12.102Z,6.22
2022-12-29T17:33:16.952Z,5.92
2022-12-29T17:38:23.660Z,5.81
2022-12-29T17:43:34.788Z,5.98
2022-12-29T17:48:39.684Z,6.00
2022-12-29T17:53:42.581Z,6.18
2022-12-29T17:58:48.904Z,6.56
2022-12-29T18:03:51.778Z,6.62
2022-12-29T18:08:54.693Z,6.62
2022-12-29T18:13:58.872Z,6.63
2022-12-29T18:19:01.720Z,6.76
2022-12-29T18:24:04.710Z,6.97
2022-12-29T18:29:08.878Z,6.57
2022-12-29T18:34:16.025Z,6.48
2022-12-29T18:39:18.832Z,6.48
2022-12-29T18:44:24.502Z,6.52
2022-12-29T18:49:27.369Z,6.18
2022-12-29T18:54:32.319Z,6.42
2022-12-29T18:59:36.628Z,6.40
2022-12-29T19:04:39.480Z,6.50
2022-12-29T19:09:42.241Z,6.29
2022-12-29T19:14:46.696Z,6.35
2022-12-29T19:19:49.486Z,6.29
2022-12-29T19:24:58.056Z,6.08
2022-12-29T19:30:04.723Z,6.14
2022-12-29T19:35:08.852Z,5.91
2022-12-29T19:40:14.568Z,6.23
2022-12-29T19:45:20.409Z,5.97
2022-12-29T19:50:23.279Z,6.13
2022-12-29T19:55:26.101Z,6.33
2022-12-29T20:00:30.337Z,6.24
2022-12-29T20:05:33.215Z,5.93
2022-12-29T20:10:36.049Z,5.86
2022-12-29T20:15:44.129Z,6.01
2022-12-29T20:20:47.175Z,6.14
2022-12-29T20:25:56.525Z,6.14
2022-12-29T20:31:03.347Z,5.99
2022-12-29T20:36:08.680Z,5.95
2022-12-29T20:41:11.517Z,5.85
2022-12-29T20:46:20.415Z,5.92
2022-12-29T20:51:24.463Z,6.12
2022-12-29T20:56:29.119Z,5.81
2022-12-29T21:01:34.039Z,6.32
2022-12-29T21:06:37.031Z,5.97
2022-12-29T21:11:39.853Z,6.27
2022-12-29T21:16:44.057Z,6.04
2022-12-29T21:21:46.843Z,6.02
2022-12-29T21:26:50.061Z,6.35
2022-12-29T21:31:54.269Z,5.90
2022-12-29T21:36:57.268Z,6.26
2022-12-29T21:42:01.722Z,5.98
2022-12-29T21:47:06.088Z,6.02
2022-12-29T21:52:08.903Z,6.35
2022-12-29T21:57:33.944Z,6.07
2022-12-29T22:02:55.820Z,6.54
2022-12-29T22:08:16.455Z,6.27
2022-12-29T22:13:19.470Z,6.27
2022-12-29T22:18:23.703Z,6.11
2022-12-29T22:23:27.006Z,6.33
2022-12-29T22:28:30.125Z,6.13
2022-12-29T22:33:35.270Z,6.44
2022-12-29T22:38:38.100Z,6.11
2022-12-29T22:43:40.852Z,6.49
2022-12-29T22:48:45.199Z,6.34
2022-12-29T22:53:49.836Z,6.49
2022-12-29T22:58:52.722Z,6.15
2022-12-29T23:04:11.001Z,6.22
2022-12-29T23:09:21.450Z,6.36
2022-12-29T23:14:24.273Z,6.15
2022-12-29T23:19:28.584Z,5.99
2022-12-29T23:24:31.332Z,5.95
2022-12-29T23:29:34.298Z,6.20
2022-12-29T23:34:38.423Z,6.02
2022-12-29T23:39:41.238Z,6.40
2022-12-29T23:44:43.991Z,6.53
2022-12-29T23:49:48.125Z,6.31
2022-12-29T23:54:50.891Z,6.07
2022-12-29T23:59:53.632Z,6.10
